MAD weather

Adolfo Suárez Madrid–Barajas Airport
Madrid, Madrid, Spain

Public forecast

Using degrees Celsius for public forecast. Weather courtesy of forecast.io.

Current aviation weather report (METAR) for Adolfo Suárez Madrid–Barajas Airport

Retrieved 2020/04/05 00:30 UTC (2 minutes ago):

LEMD 050030Z 15009KT 9999 SCT060 12/06 Q1017 NOSIG

Aviation forecast (TAF) for Adolfo Suárez Madrid–Barajas Airport

Retrieved 2020-04-05 00:28 UTC (4 minutes ago):

TAF LEMD 042300Z 0500/0606 15007KT CAVOK TX19/0515Z TN08/0506Z PROB30 TEMPO 0512/0518 FEW035TCU PROB40 TEMPO 0523/0606 RA BKN010